createdAt,value
2018-12-07T00:00:06.768Z,2.37
2018-12-07T00:02:34.859Z,2.70
2018-12-07T00:05:03.584Z,2.90
2018-12-07T00:07:31.623Z,2.47
2018-12-07T00:10:00.104Z,3.43
2018-12-07T00:12:28.275Z,3.33
2018-12-07T00:14:56.360Z,2.70
2018-12-07T00:17:25.647Z,2.90
2018-12-07T00:19:53.710Z,2.73
2018-12-07T00:22:21.895Z,3.07
2018-12-07T00:24:49.963Z,1.90
2018-12-07T00:27:18.048Z,2.00
2018-12-07T00:29:46.119Z,4.10
2018-12-07T00:32:14.883Z,1.70
2018-12-07T00:34:43.011Z,1.70
2018-12-07T00:37:11.075Z,2.33
2018-12-07T00:39:39.243Z,1.90
2018-12-07T00:42:07.318Z,1.53
2018-12-07T00:44:35.651Z,1.53
2018-12-07T00:47:03.837Z,2.20
2018-12-07T00:49:31.920Z,1.73
2018-12-07T00:52:00.095Z,1.20
2018-12-07T00:54:28.287Z,1.90
2018-12-07T00:56:56.356Z,1.00
2018-12-07T00:59:24.431Z,2.40
2018-12-07T01:01:52.495Z,2.37
2018-12-07T01:04:20.577Z,1.10
2018-12-07T01:06:48.648Z,1.87
2018-12-07T01:09:16.822Z,2.03
2018-12-07T01:11:44.871Z,1.27
2018-12-07T01:14:12.939Z,1.30
2018-12-07T01:16:41.024Z,1.63
2018-12-07T01:19:09.096Z,2.07
2018-12-07T01:21:37.178Z,1.73
2018-12-07T01:24:05.259Z,1.87
2018-12-07T01:26:33.424Z,1.30
2018-12-07T01:29:01.600Z,1.40
2018-12-07T01:31:29.683Z,2.03
2018-12-07T01:33:57.760Z,1.43
2018-12-07T01:36:25.823Z,2.17
2018-12-07T01:38:53.943Z,1.20
2018-12-07T01:41:22.017Z,1.73
2018-12-07T01:43:50.095Z,1.87
2018-12-07T01:46:18.403Z,1.23
2018-12-07T01:48:46.543Z,1.63
2018-12-07T01:51:14.633Z,1.30
2018-12-07T01:53:42.724Z,1.03
2018-12-07T01:56:10.791Z,2.03
2018-12-07T01:58:38.863Z,0.97
2018-12-07T02:01:06.959Z,1.17
2018-12-07T02:03:35.108Z,0.90
2018-12-07T02:06:03.221Z,1.00
2018-12-07T02:08:31.299Z,0.87
2018-12-07T02:10:59.395Z,1.30
2018-12-07T02:13:27.595Z,1.33
2018-12-07T02:15:55.648Z,2.70
2018-12-07T02:18:23.719Z,0.87
2018-12-07T02:20:51.782Z,0.80
2018-12-07T02:23:19.988Z,3.67
2018-12-07T02:25:48.035Z,1.07
2018-12-07T02:28:16.095Z,0.90
2018-12-07T02:30:44.205Z,1.17
2018-12-07T02:33:12.271Z,0.93
2018-12-07T02:35:41.031Z,1.63
2018-12-07T02:38:09.108Z,0.80
2018-12-07T02:40:37.416Z,0.80
2018-12-07T02:43:05.548Z,0.80
2018-12-07T02:45:34.341Z,1.60
2018-12-07T02:48:02.505Z,1.23
2018-12-07T02:50:30.555Z,1.17
2018-12-07T02:52:58.872Z,1.00
2018-12-07T02:55:27.031Z,1.20
2018-12-07T02:57:55.123Z,1.50
2018-12-07T03:00:23.175Z,1.50
2018-12-07T03:02:51.353Z,0.97
2018-12-07T03:05:19.432Z,1.00
2018-12-07T03:07:47.516Z,0.97
2018-12-07T03:10:15.595Z,1.20
2018-12-07T03:12:43.667Z,1.40
2018-12-07T03:15:12.015Z,1.67
2018-12-07T03:17:40.095Z,0.90
2018-12-07T03:20:08.414Z,1.37
2018-12-07T03:22:36.536Z,0.80
2018-12-07T03:25:06.040Z,2.13
2018-12-07T03:27:34.131Z,3.57
2018-12-07T03:30:02.317Z,1.37
2018-12-07T03:32:30.776Z,0.63
2018-12-07T03:34:58.831Z,0.70
2018-12-07T03:37:27.148Z,0.73
2018-12-07T03:39:55.216Z,0.70
2018-12-07T03:42:23.287Z,0.70
2018-12-07T03:44:51.468Z,0.60
2018-12-07T03:47:19.511Z,0.60
2018-12-07T03:49:47.676Z,0.73
2018-12-07T03:52:15.851Z,1.43
2018-12-07T03:54:43.931Z,0.50
2018-12-07T03:57:12.140Z,1.17
2018-12-07T03:59:40.219Z,1.40
2018-12-07T04:02:08.289Z,0.73
2018-12-07T04:04:36.518Z,2.10
2018-12-07T04:07:04.825Z,0.40
2018-12-07T04:09:33.023Z,0.50
2018-12-07T04:12:01.139Z,2.00
2018-12-07T04:14:29.348Z,0.70
2018-12-07T04:16:57.395Z,0.57
2018-12-07T04:19:25.486Z,0.70
2018-12-07T04:21:53.639Z,0.60
2018-12-07T04:24:21.737Z,0.50
2018-12-07T04:26:49.772Z,2.90
2018-12-07T04:29:18.143Z,2.37
2018-12-07T04:31:46.295Z,1.80
2018-12-07T04:34:14.631Z,2.30
2018-12-07T04:36:42.753Z,2.07
2018-12-07T04:39:10.855Z,1.97
2018-12-07T04:41:38.949Z,1.60
2018-12-07T04:44:07.191Z,1.90
2018-12-07T04:46:35.276Z,2.97
2018-12-07T04:49:03.415Z,3.07
2018-12-07T04:51:31.748Z,3.73
2018-12-07T04:53:59.821Z,3.83
2018-12-07T04:56:27.902Z,4.83
2018-12-07T04:58:56.031Z,5.67
2018-12-07T05:01:24.137Z,6.20
2018-12-07T05:03:52.208Z,4.60
2018-12-07T05:06:20.326Z,3.50
2018-12-07T05:08:48.433Z,3.10
2018-12-07T05:11:16.505Z,6.27
2018-12-07T05:13:44.771Z,3.50
2018-12-07T05:16:12.832Z,6.07
2018-12-07T05:18:41.320Z,4.77
2018-12-07T05:21:09.486Z,3.43
2018-12-07T05:23:37.656Z,5.40
2018-12-07T05:26:05.773Z,7.70
2018-12-07T05:28:33.971Z,5.60
2018-12-07T05:31:02.068Z,4.03
2018-12-07T05:33:30.296Z,6.63
2018-12-07T05:35:58.367Z,6.80
2018-12-07T05:38:26.621Z,5.77
2018-12-07T05:40:54.667Z,4.93
2018-12-07T05:43:22.809Z,5.20
2018-12-07T05:45:50.844Z,3.10
2018-12-07T05:48:23.658Z,5.20
2018-12-07T05:50:49.122Z,7.07
2018-12-07T05:53:17.325Z,6.63
2018-12-07T05:55:45.404Z,3.67
2018-12-07T05:58:13.647Z,7.20
2018-12-07T06:00:41.739Z,4.03
2018-12-07T06:03:09.883Z,5.43
2018-12-07T06:05:37.964Z,5.03
2018-12-07T06:08:06.023Z,7.73
2018-12-07T06:10:34.237Z,4.63
2018-12-07T06:13:02.321Z,3.80
2018-12-07T06:15:30.480Z,3.43
2018-12-07T06:17:58.549Z,4.40
2018-12-07T06:20:26.631Z,5.30
2018-12-07T06:22:54.791Z,6.70
2018-12-07T06:25:22.831Z,3.63
2018-12-07T06:27:51.007Z,3.17
2018-12-07T06:30:19.179Z,3.93
2018-12-07T06:32:47.285Z,4.67
2018-12-07T06:35:15.563Z,5.67
2018-12-07T06:37:43.648Z,4.40
2018-12-07T06:40:11.748Z,7.03
2018-12-07T06:42:39.848Z,4.03
2018-12-07T06:45:08.347Z,4.80
2018-12-07T06:47:36.448Z,3.40
2018-12-07T06:50:07.889Z,4.63
2018-12-07T06:52:35.938Z,3.67
2018-12-07T06:55:05.172Z,4.73
2018-12-07T06:57:33.333Z,4.33
2018-12-07T07:00:01.476Z,3.77
2018-12-07T07:02:29.651Z,4.07
2018-12-07T07:04:57.699Z,5.13
2018-12-07T07:07:25.767Z,3.90
2018-12-07T07:09:53.832Z,2.43
2018-12-07T07:12:21.912Z,7.70
2018-12-07T07:14:50.130Z,6.73
2018-12-07T07:17:18.206Z,4.37
2018-12-07T07:19:46.314Z,5.63
2018-12-07T07:22:14.433Z,9.20
2018-12-07T07:24:42.576Z,5.37
2018-12-07T07:27:10.666Z,3.80
2018-12-07T07:29:38.843Z,3.27
2018-12-07T07:32:07.323Z,3.70
2018-12-07T07:34:35.464Z,11.67
2018-12-07T07:37:03.631Z,5.40
2018-12-07T07:39:31.744Z,4.27
2018-12-07T07:41:59.947Z,3.77
2018-12-07T07:44:28.080Z,7.27
2018-12-07T07:46:56.309Z,8.60
2018-12-07T07:49:24.337Z,5.03
2018-12-07T07:51:52.419Z,10.70
2018-12-07T07:54:21.219Z,5.63
2018-12-07T07:56:49.643Z,5.60
2018-12-07T07:59:17.739Z,9.50
2018-12-07T08:01:45.923Z,9.13
2018-12-07T08:04:14.072Z,7.93
2018-12-07T08:06:42.166Z,5.60
2018-12-07T08:09:10.368Z,7.90
2018-12-07T08:11:38.443Z,6.53
2018-12-07T08:14:06.660Z,7.97
2018-12-07T08:16:35.191Z,8.50
2018-12-07T08:19:03.271Z,4.17
2018-12-07T08:21:31.327Z,9.17
2018-12-07T08:23:59.455Z,7.07
2018-12-07T08:26:27.580Z,5.97
2018-12-07T08:28:55.646Z,8.47
2018-12-07T08:31:23.716Z,11.00
2018-12-07T08:33:51.814Z,8.63
2018-12-07T08:36:19.958Z,10.07
2018-12-07T08:38:48.039Z,6.27
2018-12-07T08:41:16.127Z,8.90
2018-12-07T08:43:44.203Z,9.23
2018-12-07T08:46:12.347Z,12.13
2018-12-07T08:48:40.632Z,9.67
2018-12-07T08:51:08.699Z,12.77
2018-12-07T08:53:36.782Z,8.80
2018-12-07T08:56:05.047Z,7.07
2018-12-07T08:58:33.215Z,9.37
2018-12-07T09:01:01.297Z,10.50
2018-12-07T09:03:29.531Z,13.63
2018-12-07T09:05:57.624Z,8.37
2018-12-07T09:08:25.676Z,6.83
2018-12-07T09:10:53.880Z,10.67
2018-12-07T09:13:22.013Z,7.97
2018-12-07T09:15:50.487Z,9.07
2018-12-07T09:18:18.595Z,6.40
2018-12-07T09:20:53.771Z,7.87
2018-12-07T09:23:16.749Z,6.57
2018-12-07T09:25:44.883Z,11.20
2018-12-07T09:28:12.972Z,9.97
2018-12-07T09:30:41.256Z,7.40
2018-12-07T09:33:09.439Z,8.10
2018-12-07T09:35:37.583Z,10.80
2018-12-07T09:38:12.969Z,5.50
2018-12-07T09:40:35.759Z,6.57
2018-12-07T09:43:03.883Z,7.63
2018-12-07T09:45:31.964Z,8.40
2018-12-07T09:48:00.014Z,8.83
2018-12-07T09:50:28.140Z,7.37
2018-12-07T09:52:56.212Z,8.27
2018-12-07T09:55:24.347Z,8.87
2018-12-07T09:57:52.571Z,7.53
2018-12-07T10:00:20.755Z,6.70
2018-12-07T10:02:48.827Z,6.50
2018-12-07T10:05:16.980Z,7.90
2018-12-07T10:07:45.259Z,5.80
2018-12-07T10:10:13.357Z,5.43
2018-12-07T10:12:41.403Z,10.00
2018-12-07T10:15:09.554Z,5.43
2018-12-07T10:17:37.664Z,6.10
2018-12-07T10:20:06.348Z,9.17
2018-12-07T10:22:34.470Z,6.53
2018-12-07T10:25:02.564Z,4.87
2018-12-07T10:27:30.668Z,5.33
2018-12-07T10:29:58.779Z,5.33
2018-12-07T10:32:26.904Z,4.47
2018-12-07T10:34:54.988Z,4.50
2018-12-07T10:37:23.151Z,6.73
2018-12-07T10:39:51.297Z,4.57
2018-12-07T10:42:19.411Z,4.63
2018-12-07T10:44:47.479Z,6.83
2018-12-07T10:47:15.555Z,4.47
2018-12-07T10:49:43.598Z,6.53
2018-12-07T10:52:11.719Z,3.67
2018-12-07T10:54:39.964Z,5.97
2018-12-07T10:57:08.035Z,5.07
2018-12-07T10:59:36.163Z,11.50
2018-12-07T11:02:06.253Z,5.13
2018-12-07T11:04:36.220Z,3.80
2018-12-07T11:07:06.347Z,3.87
2018-12-07T11:09:36.314Z,4.90
2018-12-07T11:12:06.538Z,5.90
2018-12-07T11:14:36.580Z,3.83
2018-12-07T11:17:06.515Z,2.97
2018-12-07T11:19:36.459Z,3.70
2018-12-07T11:22:06.404Z,6.77
2018-12-07T11:24:36.520Z,6.47
2018-12-07T11:27:06.475Z,4.33
2018-12-07T11:29:36.895Z,3.77
2018-12-07T11:32:06.927Z,3.50
2018-12-07T11:34:36.193Z,4.00
2018-12-07T11:37:04.355Z,5.70
2018-12-07T11:39:32.454Z,3.40
2018-12-07T11:42:00.593Z,2.90
2018-12-07T11:44:28.667Z,4.37
2018-12-07T11:46:56.736Z,2.47
2018-12-07T11:49:26.916Z,2.60
2018-12-07T11:51:55.879Z,3.33
2018-12-07T11:54:23.927Z,4.97
2018-12-07T11:56:52.023Z,1.57
2018-12-07T11:59:20.205Z,1.30
2018-12-07T12:01:48.297Z,2.17
2018-12-07T12:04:16.675Z,2.93
2018-12-07T12:06:44.793Z,3.27
2018-12-07T12:09:12.844Z,2.47
2018-12-07T12:11:40.995Z,4.20
2018-12-07T12:14:09.167Z,1.33
2018-12-07T12:16:37.235Z,1.87
2018-12-07T12:19:05.305Z,2.23
2018-12-07T12:21:33.383Z,2.00
2018-12-07T12:24:01.697Z,1.97
2018-12-07T12:26:29.757Z,1.20
2018-12-07T12:28:57.807Z,2.30
2018-12-07T12:31:25.863Z,2.73
2018-12-07T12:33:53.927Z,2.30
2018-12-07T12:36:22.012Z,1.80
2018-12-07T12:38:50.092Z,1.03
2018-12-07T12:41:18.207Z,4.13
2018-12-07T12:43:47.016Z,2.23
2018-12-07T12:46:15.100Z,1.37
2018-12-07T12:48:43.183Z,2.03
2018-12-07T12:51:11.255Z,1.27
2018-12-07T12:53:39.332Z,2.47
2018-12-07T12:56:07.381Z,1.63
2018-12-07T12:58:35.524Z,1.80
2018-12-07T13:01:03.720Z,1.70
2018-12-07T13:03:31.804Z,2.53
2018-12-07T13:06:00.145Z,1.83
2018-12-07T13:08:28.200Z,1.03
2018-12-07T13:10:56.347Z,3.10
2018-12-07T13:13:24.407Z,1.90
2018-12-07T13:15:52.459Z,1.50
2018-12-07T13:18:21.488Z,1.00
2018-12-07T13:20:49.598Z,1.77
2018-12-07T13:23:17.627Z,1.40
2018-12-07T13:25:45.699Z,1.63
2018-12-07T13:28:14.081Z,2.83
2018-12-07T13:30:42.125Z,0.70
2018-12-07T13:33:10.199Z,3.07
2018-12-07T13:35:38.643Z,0.83
2018-12-07T13:38:06.739Z,2.10
2018-12-07T13:40:34.991Z,1.90
2018-12-07T13:43:03.354Z,2.60
2018-12-07T13:45:31.541Z,1.13
2018-12-07T13:47:59.923Z,1.63
2018-12-07T13:50:30.163Z,0.93
2018-12-07T13:52:58.587Z,2.07
2018-12-07T13:55:26.791Z,1.20
2018-12-07T13:57:55.294Z,0.93
2018-12-07T14:00:23.562Z,0.63
2018-12-07T14:02:51.696Z,0.80
2018-12-07T14:05:20.593Z,1.00
2018-12-07T14:07:48.882Z,1.00
2018-12-07T14:10:17.094Z,0.70
2018-12-07T14:12:45.179Z,0.60
2018-12-07T14:15:13.711Z,0.80
2018-12-07T14:17:41.837Z,1.57
2018-12-07T14:20:10.039Z,1.10
2018-12-07T14:22:38.325Z,1.60
2018-12-07T14:25:06.666Z,1.23
2018-12-07T14:27:34.826Z,0.80
2018-12-07T14:30:05.600Z,1.03
2018-12-07T14:32:33.904Z,0.87
2018-12-07T14:35:02.169Z,0.60
2018-12-07T14:37:30.550Z,0.70
2018-12-07T14:39:58.844Z,1.43
2018-12-07T14:42:27.098Z,0.70
2018-12-07T14:44:55.272Z,0.60
2018-12-07T14:47:23.343Z,2.67
2018-12-07T14:49:51.729Z,1.20
2018-12-07T14:52:19.962Z,0.90
2018-12-07T14:54:48.700Z,1.73
2018-12-07T14:57:16.935Z,3.97
2018-12-07T14:59:45.317Z,1.73
2018-12-07T15:02:13.683Z,2.07
2018-12-07T15:04:41.987Z,3.03
2018-12-07T15:07:10.131Z,1.57
2018-12-07T15:09:38.547Z,2.50
2018-12-07T15:12:06.796Z,1.13
2018-12-07T15:14:34.929Z,1.07
2018-12-07T15:17:03.343Z,2.37
2018-12-07T15:19:31.650Z,2.93
2018-12-07T15:21:59.799Z,3.27
2018-12-07T15:24:27.992Z,2.23
2018-12-07T15:26:56.451Z,1.43
2018-12-07T15:29:24.712Z,2.53
2018-12-07T15:31:52.939Z,3.20
2018-12-07T15:34:21.268Z,1.47
2018-12-07T15:36:49.489Z,1.23
2018-12-07T15:39:17.884Z,1.60
2018-12-07T15:41:46.019Z,3.97
2018-12-07T15:44:14.127Z,3.97
2018-12-07T15:46:42.415Z,2.93
2018-12-07T15:49:10.578Z,1.43
2018-12-07T15:51:39.029Z,1.77
2018-12-07T15:54:07.198Z,1.53
2018-12-07T15:56:35.378Z,1.67
2018-12-07T15:59:03.753Z,2.23
2018-12-07T16:01:32.226Z,4.20
2018-12-07T16:04:00.679Z,1.10
2018-12-07T16:06:30.136Z,2.43
2018-12-07T16:08:58.413Z,2.37
2018-12-07T16:11:27.249Z,2.30
2018-12-07T16:13:55.635Z,0.97
2018-12-07T16:16:23.997Z,3.10
2018-12-07T16:18:52.179Z,0.80
2018-12-07T16:21:20.371Z,1.53
2018-12-07T16:23:48.714Z,1.63
2018-12-07T16:26:16.948Z,1.10
2018-12-07T16:28:45.303Z,2.97
2018-12-07T16:31:13.347Z,3.63
2018-12-07T16:33:41.534Z,3.60
2018-12-07T16:36:10.101Z,1.17
2018-12-07T16:38:38.536Z,2.83
2018-12-07T16:41:06.862Z,2.13
2018-12-07T16:43:35.086Z,2.07
2018-12-07T16:46:03.243Z,2.43
2018-12-07T16:48:31.382Z,2.63
2018-12-07T16:50:59.917Z,3.03
2018-12-07T16:53:28.151Z,3.00
2018-12-07T16:55:56.373Z,1.57
2018-12-07T16:58:24.546Z,5.63
2018-12-07T17:00:52.797Z,2.57
2018-12-07T17:03:21.267Z,3.43
2018-12-07T17:05:49.547Z,2.90
2018-12-07T17:08:17.978Z,1.57
2018-12-07T17:10:46.270Z,3.23
2018-12-07T17:13:14.803Z,2.33
2018-12-07T17:15:43.127Z,4.60
2018-12-07T17:18:11.473Z,1.27
2018-12-07T17:20:39.858Z,1.57
2018-12-07T17:23:08.164Z,4.13
2018-12-07T17:25:37.685Z,2.13
2018-12-07T17:28:05.920Z,2.50
2018-12-07T17:30:34.173Z,4.20
2018-12-07T17:33:02.390Z,2.47
2018-12-07T17:35:30.981Z,2.93
2018-12-07T17:37:59.281Z,1.20
2018-12-07T17:40:27.535Z,4.03
2018-12-07T17:42:55.882Z,2.40
2018-12-07T17:45:24.731Z,2.50
2018-12-07T17:47:53.030Z,2.73
2018-12-07T17:50:22.345Z,3.43
2018-12-07T17:52:50.693Z,2.13
2018-12-07T17:55:18.777Z,1.67
2018-12-07T17:57:47.012Z,1.30
2018-12-07T18:00:15.161Z,1.50
2018-12-07T18:02:43.271Z,1.50
2018-12-07T18:05:11.589Z,1.53
2018-12-07T18:07:39.890Z,2.60
2018-12-07T18:10:08.716Z,2.73
2018-12-07T18:12:37.280Z,1.30
2018-12-07T18:15:06.819Z,2.40
2018-12-07T18:17:35.061Z,1.47
2018-12-07T18:20:04.355Z,1.20
2018-12-07T18:22:32.535Z,1.87
2018-12-07T18:25:00.681Z,1.37
2018-12-07T18:27:28.936Z,1.10
2018-12-07T18:29:57.224Z,0.97
2018-12-07T18:32:25.350Z,3.03
2018-12-07T18:34:53.533Z,1.07
2018-12-07T18:37:21.718Z,1.30
2018-12-07T18:39:49.965Z,1.00
2018-12-07T18:42:18.215Z,1.10
2018-12-07T18:44:46.350Z,2.00
2018-12-07T18:47:14.792Z,1.33
2018-12-07T18:49:43.214Z,1.50
2018-12-07T18:52:11.587Z,1.03
2018-12-07T18:54:39.921Z,1.30
2018-12-07T18:57:08.370Z,1.00
2018-12-07T18:59:36.703Z,1.80
2018-12-07T19:02:05.106Z,0.80
2018-12-07T19:04:33.443Z,0.90
2018-12-07T19:07:01.887Z,0.80
2018-12-07T19:09:30.407Z,2.93
2018-12-07T19:11:59.271Z,1.20
2018-12-07T19:14:27.601Z,2.40
2018-12-07T19:16:56.231Z,2.83
2018-12-07T19:19:24.447Z,1.57
2018-12-07T19:21:52.732Z,2.60
2018-12-07T19:24:21.050Z,4.03
2018-12-07T19:26:49.930Z,4.27
2018-12-07T19:29:18.162Z,4.80
2018-12-07T19:31:46.477Z,2.67
2018-12-07T19:34:14.819Z,10.67
2018-12-07T19:36:42.899Z,6.07
2018-12-07T19:39:11.013Z,6.07
2018-12-07T19:41:39.494Z,8.43
2018-12-07T19:44:08.065Z,6.80
2018-12-07T19:46:37.450Z,7.60
2018-12-07T19:49:05.846Z,7.63
2018-12-07T19:51:34.323Z,7.17
2018-12-07T19:54:02.646Z,6.50
2018-12-07T19:56:30.939Z,3.63
2018-12-07T19:58:59.217Z,3.57
2018-12-07T20:01:27.392Z,7.03
2018-12-07T20:03:55.915Z,6.37
2018-12-07T20:06:24.337Z,3.60
2018-12-07T20:08:52.664Z,4.70
2018-12-07T20:11:21.245Z,3.90
2018-12-07T20:13:49.562Z,7.77
2018-12-07T20:16:18.032Z,2.37
2018-12-07T20:18:46.306Z,3.20
2018-12-07T20:21:14.528Z,5.90
2018-12-07T20:23:43.196Z,3.63
2018-12-07T20:26:11.380Z,4.33
2018-12-07T20:28:39.539Z,6.33
2018-12-07T20:31:08.014Z,3.10
2018-12-07T20:33:36.308Z,4.00
2018-12-07T20:36:04.838Z,5.37
2018-12-07T20:38:33.885Z,2.83
2018-12-07T20:41:02.820Z,6.17
2018-12-07T20:43:31.071Z,3.67
2018-12-07T20:45:59.727Z,6.63
2018-12-07T20:48:28.591Z,4.67
2018-12-07T20:50:56.955Z,7.07
2018-12-07T20:53:25.163Z,7.77
2018-12-07T20:55:53.428Z,4.33
2018-12-07T20:58:21.693Z,6.73
2018-12-07T21:00:59.012Z,6.60
2018-12-07T21:03:28.114Z,7.20
2018-12-07T21:06:03.823Z,7.13
2018-12-07T21:08:39.489Z,12.20
2018-12-07T21:11:08.307Z,6.57
2018-12-07T21:13:40.491Z,8.70
2018-12-07T21:19:00.296Z,8.57
2018-12-07T21:21:28.999Z,8.57
2018-12-07T21:23:57.456Z,8.90
2018-12-07T21:26:25.948Z,7.20
2018-12-07T21:28:54.342Z,8.83
2018-12-07T21:31:22.603Z,11.90
2018-12-07T21:33:56.280Z,8.30
2018-12-07T21:36:32.078Z,7.27
2018-12-07T21:39:00.259Z,7.13
2018-12-07T21:41:28.914Z,8.07
2018-12-07T21:43:57.290Z,7.40
2018-12-07T21:46:25.767Z,7.57
2018-12-07T21:48:54.144Z,5.33
2018-12-07T21:51:28.090Z,8.80
2018-12-07T21:53:56.169Z,5.80
2018-12-07T21:56:24.273Z,7.83
2018-12-07T21:58:52.846Z,6.70
2018-12-07T22:01:21.341Z,9.53
2018-12-07T22:03:49.544Z,9.63
2018-12-07T22:06:18.054Z,8.70
2018-12-07T22:08:46.214Z,9.53
2018-12-07T22:11:14.352Z,8.40
2018-12-07T22:13:42.844Z,7.97
2018-12-07T22:16:11.091Z,6.30
2018-12-07T22:18:39.351Z,6.43
2018-12-07T22:21:07.723Z,8.00
2018-12-07T22:23:35.763Z,4.63
2018-12-07T22:26:04.177Z,10.73
2018-12-07T22:28:32.567Z,6.47
2018-12-07T22:31:01.134Z,8.40
2018-12-07T22:33:29.680Z,6.03
2018-12-07T22:35:57.835Z,7.80
2018-12-07T22:38:26.222Z,14.13
2018-12-07T22:40:54.617Z,5.43
2018-12-07T22:43:23.003Z,13.50
2018-12-07T22:45:51.686Z,7.97
2018-12-07T22:48:19.953Z,8.90
2018-12-07T22:50:48.219Z,10.17
2018-12-07T22:53:16.287Z,7.77
2018-12-07T22:55:44.342Z,7.53
2018-12-07T22:58:12.515Z,16.57
2018-12-07T23:00:42.527Z,9.00
2018-12-07T23:03:10.663Z,7.53
2018-12-07T23:05:38.763Z,9.43
2018-12-07T23:08:06.847Z,8.00
2018-12-07T23:10:34.891Z,7.93
2018-12-07T23:13:02.991Z,9.20
2018-12-07T23:15:31.062Z,4.13
2018-12-07T23:17:59.131Z,6.73
2018-12-07T23:20:27.205Z,7.07
2018-12-07T23:22:55.337Z,7.93
2018-12-07T23:25:23.359Z,4.73
2018-12-07T23:27:52.547Z,7.13
2018-12-07T23:30:20.591Z,6.83
2018-12-07T23:32:48.676Z,6.97
2018-12-07T23:35:17.087Z,6.17
2018-12-07T23:37:45.159Z,6.13
2018-12-07T23:40:13.195Z,5.90
2018-12-07T23:42:41.303Z,8.77
2018-12-07T23:45:09.419Z,8.87
2018-12-07T23:47:37.492Z,8.33
2018-12-07T23:50:07.380Z,9.80
2018-12-07T23:52:35.511Z,10.07
2018-12-07T23:55:04.554Z,10.07
2018-12-07T23:57:32.803Z,10.30
